Tiszavasvari, Hungary
Current Conditions -  °F | °C
As of 7:45 AM on Sunday 23 Nov 2014 (Local Time) from LHDC Reporting Station
Broken Clouds Broken Clouds  
Wind Chill: 39°   Ceiling: 3300
Heat Index: 39°   Visibility: 5mi
Dew Point: 36°   Wind: 1mph
Humidity: 87%   Direction: 100°E
Pressure: 30.42"   Gusts: NA
Location:  47.97°N, 21.36°E
Report Text: LHDC 230545Z 10001KT 8000 BKN033 04/02 Q1030
Loading
Personal Weather Stations






























Interactive Weather Map New forecast layout! Learn more

10-Day Weather Forecast

Advertisements
Track Severe Weather on mobile